Time;durP1;ratioP1;P1;durP2;ratioP2;P2;SDS_P1;SDS_P2;PMS_P1;PMS_P2;Temp;Humidity;BMP_temperature;BMP_pressure;BME280_temperature;BME280_humidity;BME280_pressure;Samples;Min_cycle;Max_cycle;Signal;HPM_P1;HPM_P2
2022/10/15 17:16:45;;;;;;;13.52;7.97;;;;;;;;;;6206850;22;20007;-90
2022/10/15 17:19:58;;;;;;;13.05;7.53;;;;;;;;;;6144302;23;20036;-90
2022/10/15 17:23:16;;;;;;;13.23;7.90;;;;;;;;;;6167539;23;20013;-90
2022/10/15 17:27:02;;;;;;;13.15;6.82;;;;;;;;;;6167272;23;20021;-91
2022/10/15 17:30:33;;;;;;;10.10;6.72;;;;;;;;;;6117240;23;20076;-91
2022/10/15 17:33:23;;;;;;;11.75;6.95;;;;;;;;;;6140867;23;20017;-90
2022/10/15 17:36:24;;;;;;;11.13;6.50;;;;;;;;;;6169720;23;20555;-91
2022/10/15 17:44:09;;;;;;;10.88;6.43;;;;;;;;;;6079721;23;20029;-90
2022/10/15 17:51:48;;;;;;;12.98;5.50;;;;;;;;;;6051536;23;20090;-92
2022/10/15 17:59:24;;;;;;;12.50;5.22;;;;;;;;;;6039951;23;20015;-92
2022/10/15 18:03:05;;;;;;;11.57;6.32;;;;;;;;;;5960112;24;20365;-92
2022/10/15 18:11:15;;;;;;;11.18;6.05;;;;;;;;;;5981055;24;20024;-92
2022/10/15 18:15:28;;;;;;;10.70;6.25;;;;;;;;;;5927200;24;20108;-92
2022/10/15 18:19:04;;;;;;;9.48;5.18;;;;;;;;;;5915187;24;20098;-91
2022/10/15 18:27:03;;;;;;;9.70;5.47;;;;;;;;;;5937045;24;20096;-90
2022/10/15 18:30:01;;;;;;;7.43;4.72;;;;;;;;;;5926621;24;20021;-91
2022/10/15 18:32:46;;;;;;;8.65;4.82;;;;;;;;;;5929311;24;20371;-91
2022/10/15 18:36:14;;;;;;;10.60;5.20;;;;;;;;;;5953891;24;20020;-90
2022/10/15 18:55:32;;;;;;;9.10;4.54;;;;;;;;;;6214630;22;21628531;-91
2022/10/15 18:58:47;;;;;;;8.77;5.22;;;;;;;;;;6198877;23;20288;-90
2022/10/15 19:03:07;;;;;;;8.63;4.75;;;;;;;;;;6226185;23;20024;-91
2022/10/15 19:06:45;;;;;;;8.27;4.75;;;;;;;;;;6147452;23;20343;-90
2022/10/15 19:09:48;;;;;;;5.90;3.33;;;;;;;;;;6095579;23;20021;-89
2022/10/15 19:12:52;;;;;;;7.88;4.13;;;;;;;;;;6133678;23;20035;-91
2022/10/15 19:16:09;;;;;;;5.97;3.50;;;;;;;;;;6088617;23;20025;-90
2022/10/15 19:20:24;;;;;;;6.63;4.03;;;;;;;;;;6053656;23;20015;-92
2022/10/15 19:28:41;;;;;;;8.05;3.83;;;;;;;;;;6093064;23;20072;-92
2022/10/15 19:32:21;;;;;;;6.88;3.75;;;;;;;;;;6109069;23;20325;-92
2022/10/15 19:39:16;;;;;;;10.02;4.32;;;;;;;;;;6109684;23;20088;-92
2022/10/15 19:42:29;;;;;;;6.25;4.00;;;;;;;;;;6030704;23;20447;-92
2022/10/15 19:45:48;;;;;;;7.65;4.45;;;;;;;;;;5969035;23;20349;-92
2022/10/15 19:48:58;;;;;;;6.63;4.05;;;;;;;;;;6020337;23;20437;-92
2022/10/15 19:52:51;;;;;;;5.95;3.80;;;;;;;;;;5968890;23;20028;-92
2022/10/15 19:56:14;;;;;;;7.53;4.28;;;;;;;;;;5943982;23;20020;-92
2022/10/15 19:59:24;;;;;;;8.40;4.40;;;;;;;;;;5995867;23;20034;-91
2022/10/15 20:02:59;;;;;;;7.20;4.05;;;;;;;;;;5927224;24;20036;-92
2022/10/15 20:06:12;;;;;;;11.43;4.45;;;;;;;;;;5854646;24;20021;-91
2022/10/15 20:13:40;;;;;;;7.97;4.40;;;;;;;;;;5909300;24;20010;-91
2022/10/15 20:17:00;;;;;;;5.68;3.90;;;;;;;;;;5922166;24;20033;-92
2022/10/15 20:25:03;;;;;;;6.85;3.85;;;;;;;;;;6043428;23;20136;-92
2022/10/15 20:28:26;;;;;;;6.35;3.83;;;;;;;;;;5997377;23;20023;-92
2022/10/15 20:31:50;;;;;;;6.07;4.10;;;;;;;;;;5946521;24;20043;-92
2022/10/15 20:39:43;;;;;;;7.38;4.75;;;;;;;;;;6040042;23;20094;-92
2022/10/15 20:43:42;;;;;;;8.63;4.35;;;;;;;;;;6024101;23;20486;-91
2022/10/15 20:47:13;;;;;;;6.20;4.20;;;;;;;;;;6002131;23;20102;-92
2022/10/15 20:54:46;;;;;;;7.88;5.18;;;;;;;;;;6037289;23;20086;-91
2022/10/15 20:58:49;;;;;;;7.45;5.30;;;;;;;;;;6049183;23;20022;-92
2022/10/15 21:01:50;;;;;;;7.70;5.40;;;;;;;;;;6083511;23;20364;-88
2022/10/15 21:05:10;;;;;;;8.85;5.25;;;;;;;;;;6083905;23;20022;-87
2022/10/15 21:08:36;;;;;;;7.45;5.32;;;;;;;;;;6096698;23;20409;-87
2022/10/15 21:11:52;;;;;;;9.73;6.10;;;;;;;;;;6153029;23;20376;-88
2022/10/15 21:14:58;;;;;;;9.60;5.60;;;;;;;;;;6128466;23;20027;-88
2022/10/15 21:17:52;;;;;;;8.65;5.93;;;;;;;;;;6123730;23;20024;-87
2022/10/15 21:21:25;;;;;;;9.05;5.65;;;;;;;;;;6128640;23;20345;-91
2022/10/15 21:24:13;;;;;;;8.85;5.80;;;;;;;;;;6070121;23;20050;-87
2022/10/15 21:27:32;;;;;;;7.32;5.20;;;;;;;;;;6093501;23;20025;-87
2022/10/15 21:30:43;;;;;;;8.32;5.78;;;;;;;;;;6040926;23;20416;-88
2022/10/15 21:34:33;;;;;;;13.68;5.78;;;;;;;;;;6041209;23;20027;-88
2022/10/15 21:37:42;;;;;;;8.30;5.65;;;;;;;;;;6041278;23;20556;-87
2022/10/15 21:41:16;;;;;;;;;;;;;;;;;;6065790;23;20037;-87
2022/10/15 21:44:07;;;;;;;9.80;5.85;;;;;;;;;;6009147;23;20493;-87
2022/10/15 21:47:16;;;;;;;9.40;6.10;;;;;;;;;;6010669;23;20106;-87
2022/10/15 21:50:18;;;;;;;11.00;5.68;;;;;;;;;;5970017;23;20023;-87
2022/10/15 21:53:51;;;;;;;13.25;6.00;;;;;;;;;;5956909;24;20411;-91
2022/10/15 21:57:32;;;;;;;7.75;4.93;;;;;;;;;;5978113;24;20025;-91
2022/10/15 22:01:44;;;;;;;11.38;5.10;;;;;;;;;;5981379;23;20024;-91
2022/10/15 22:05:38;;;;;;;8.73;5.22;;;;;;;;;;5933772;24;20041;-91
2022/10/15 22:10:17;;;;;;;10.20;5.80;;;;;;;;;;5927017;24;20096;-90
2022/10/15 22:17:47;;;;;;;7.57;3.83;;;;;;;;;;5856430;24;20021;-92
2022/10/15 22:26:16;;;;;;;6.50;3.50;;;;;;;;;;5899708;24;20031;-91
2022/10/15 22:30:05;;;;;;;6.50;3.50;;;;;;;;;;5899120;24;20024;-90
2022/10/15 22:33:04;;;;;;;6.05;3.58;;;;;;;;;;5813341;24;20031;-91
2022/10/15 22:37:02;;;;;;;7.13;3.97;;;;;;;;;;5817464;24;20039;-91
2022/10/15 22:40:46;;;;;;;6.57;3.88;;;;;;;;;;5756631;24;20094;-91
2022/10/15 22:44:11;;;;;;;7.55;3.85;;;;;;;;;;5741335;24;20031;-92
2022/10/15 22:47:48;;;;;;;6.72;3.25;;;;;;;;;;5752215;24;20099;-92
2022/10/15 22:51:33;;;;;;;6.75;3.75;;;;;;;;;;5793101;24;20047;-91
2022/10/15 22:55:04;;;;;;;6.70;4.43;;;;;;;;;;5765266;24;20511;-91
2022/10/15 22:58:43;;;;;;;9.38;4.18;;;;;;;;;;5764900;24;20043;-91
2022/10/15 23:02:14;;;;;;;7.13;3.88;;;;;;;;;;5764180;24;20506;-92
2022/10/15 23:05:37;;;;;;;7.82;3.97;;;;;;;;;;5794577;24;20168;-92
2022/10/15 23:12:51;;;;;;;7.65;3.72;;;;;;;;;;5899193;24;20074;-91
2022/10/15 23:16:38;;;;;;;6.72;3.97;;;;;;;;;;5878741;24;20037;-91
2022/10/15 23:19:56;;;;;;;8.23;4.05;;;;;;;;;;5865553;24;20021;-91
2022/10/15 23:23:33;;;;;;;7.10;3.80;;;;;;;;;;5889919;24;20029;-92
2022/10/15 23:31:23;;;;;;;8.73;4.00;;;;;;;;;;5905738;24;20024;-87
2022/10/15 23:34:43;;;;;;;8.75;4.22;;;;;;;;;;5946458;24;20028;-88
2022/10/15 23:37:44;;;;;;;8.40;4.72;;;;;;;;;;5935272;24;20024;-88
2022/10/15 23:40:43;;;;;;;6.78;4.10;;;;;;;;;;5935498;24;20531;-91
2022/10/15 23:43:39;;;;;;;7.35;3.88;;;;;;;;;;5940021;24;20558;-87
2022/10/15 23:46:50;;;;;;;8.10;4.00;;;;;;;;;;5929656;24;20056;-87
2022/10/15 23:49:54;;;;;;;10.98;4.38;;;;;;;;;;5940991;23;20032;-87
2022/10/15 23:57:24;;;;;;;7.57;4.15;;;;;;;;;;6016447;23;20465;-91
